sensor_id;sensor_type;location;lat;lon;timestamp;P1;durP1;ratioP1;P2;durP2;ratioP2
65665;SDS011;52365;47.464;18.976;2023-01-09T00:00:05;21.98;;;15.20;;
65665;SDS011;52365;47.464;18.976;2023-01-09T00:00:43;21.17;;;15.35;;
65665;SDS011;52365;47.464;18.976;2023-01-09T00:01:21;23.10;;;15.35;;
65665;SDS011;52365;47.464;18.976;2023-01-09T00:01:59;21.48;;;15.25;;
65665;SDS011;52365;47.464;18.976;2023-01-09T00:02:35;22.08;;;14.60;;
65665;SDS011;52365;47.464;18.976;2023-01-09T00:03:15;21.95;;;15.15;;
65665;SDS011;52365;47.464;18.976;2023-01-09T00:03:51;20.00;;;14.77;;
65665;SDS011;52365;47.464;18.976;2023-01-09T00:04:27;20.25;;;14.60;;
65665;SDS011;52365;47.464;18.976;2023-01-09T00:05:03;20.58;;;14.82;;
65665;SDS011;52365;47.464;18.976;2023-01-09T00:05:39;21.02;;;14.85;;
65665;SDS011;52365;47.464;18.976;2023-01-09T00:06:16;21.20;;;14.65;;
65665;SDS011;52365;47.464;18.976;2023-01-09T00:06:52;20.75;;;14.80;;
65665;SDS011;52365;47.464;18.976;2023-01-09T00:07:31;21.73;;;14.82;;
65665;SDS011;52365;47.464;18.976;2023-01-09T00:08:07;21.35;;;15.20;;
65665;SDS011;52365;47.464;18.976;2023-01-09T00:08:43;22.75;;;15.15;;
65665;SDS011;52365;47.464;18.976;2023-01-09T00:09:20;19.95;;;14.50;;
65665;SDS011;52365;47.464;18.976;2023-01-09T00:09:56;21.83;;;14.77;;
65665;SDS011;52365;47.464;18.976;2023-01-09T00:10:33;20.58;;;14.38;;
65665;SDS011;52365;47.464;18.976;2023-01-09T00:11:09;23.25;;;14.82;;
65665;SDS011;52365;47.464;18.976;2023-01-09T00:11:45;22.27;;;14.95;;
65665;SDS011;52365;47.464;18.976;2023-01-09T00:12:21;21.48;;;15.20;;
65665;SDS011;52365;47.464;18.976;2023-01-09T00:12:57;22.23;;;14.68;;
65665;SDS011;52365;47.464;18.976;2023-01-09T00:13:33;21.62;;;14.87;;
65665;SDS011;52365;47.464;18.976;2023-01-09T00:14:09;22.62;;;14.52;;
65665;SDS011;52365;47.464;18.976;2023-01-09T00:14:45;20.12;;;14.25;;
65665;SDS011;52365;47.464;18.976;2023-01-09T00:15:21;20.80;;;15.27;;
65665;SDS011;52365;47.464;18.976;2023-01-09T00:15:57;20.65;;;14.57;;
65665;SDS011;52365;47.464;18.976;2023-01-09T00:16:34;20.30;;;14.05;;
65665;SDS011;52365;47.464;18.976;2023-01-09T00:17:10;21.55;;;15.25;;
65665;SDS011;52365;47.464;18.976;2023-01-09T00:17:46;22.37;;;15.32;;
65665;SDS011;52365;47.464;18.976;2023-01-09T00:18:24;22.23;;;14.98;;
65665;SDS011;52365;47.464;18.976;2023-01-09T00:19:00;20.83;;;14.90;;
65665;SDS011;52365;47.464;18.976;2023-01-09T00:19:36;22.35;;;15.25;;
65665;SDS011;52365;47.464;18.976;2023-01-09T00:20:12;20.95;;;14.82;;
65665;SDS011;52365;47.464;18.976;2023-01-09T00:20:49;22.05;;;15.63;;
65665;SDS011;52365;47.464;18.976;2023-01-09T00:21:25;23.15;;;14.90;;
65665;SDS011;52365;47.464;18.976;2023-01-09T00:22:01;21.42;;;14.73;;
65665;SDS011;52365;47.464;18.976;2023-01-09T00:22:37;20.05;;;14.38;;
65665;SDS011;52365;47.464;18.976;2023-01-09T00:23:13;21.08;;;15.23;;
65665;SDS011;52365;47.464;18.976;2023-01-09T00:23:51;23.10;;;14.73;;
65665;SDS011;52365;47.464;18.976;2023-01-09T00:24:28;22.62;;;15.15;;
65665;SDS011;52365;47.464;18.976;2023-01-09T00:25:04;21.05;;;14.93;;
65665;SDS011;52365;47.464;18.976;2023-01-09T00:25:41;22.52;;;15.00;;
65665;SDS011;52365;47.464;18.976;2023-01-09T00:26:17;22.40;;;15.02;;
65665;SDS011;52365;47.464;18.976;2023-01-09T00:26:54;23.27;;;14.98;;
65665;SDS011;52365;47.464;18.976;2023-01-09T00:27:31;20.33;;;14.38;;
65665;SDS011;52365;47.464;18.976;2023-01-09T00:28:08;20.77;;;14.32;;
65665;SDS011;52365;47.464;18.976;2023-01-09T00:28:45;22.90;;;15.20;;
65665;SDS011;52365;47.464;18.976;2023-01-09T00:29:22;21.60;;;14.68;;
65665;SDS011;52365;47.464;18.976;2023-01-09T00:29:58;22.35;;;14.70;;
65665;SDS011;52365;47.464;18.976;2023-01-09T00:30:34;19.65;;;13.98;;
65665;SDS011;52365;47.464;18.976;2023-01-09T00:31:11;19.67;;;14.73;;
65665;SDS011;52365;47.464;18.976;2023-01-09T00:31:47;21.25;;;14.25;;
65665;SDS011;52365;47.464;18.976;2023-01-09T00:32:23;21.15;;;14.63;;
65665;SDS011;52365;47.464;18.976;2023-01-09T00:33:00;21.62;;;14.57;;
65665;SDS011;52365;47.464;18.976;2023-01-09T00:33:47;20.02;;;14.87;;
65665;SDS011;52365;47.464;18.976;2023-01-09T00:34:29;21.98;;;14.38;;
65665;SDS011;52365;47.464;18.976;2023-01-09T00:35:06;21.58;;;14.75;;
65665;SDS011;52365;47.464;18.976;2023-01-09T00:35:48;20.02;;;14.52;;
65665;SDS011;52365;47.464;18.976;2023-01-09T00:36:24;20.60;;;14.20;;
65665;SDS011;52365;47.464;18.976;2023-01-09T00:37:00;21.15;;;14.70;;
65665;SDS011;52365;47.464;18.976;2023-01-09T00:37:36;21.27;;;14.80;;
65665;SDS011;52365;47.464;18.976;2023-01-09T00:38:12;21.90;;;14.57;;
65665;SDS011;52365;47.464;18.976;2023-01-09T00:38:48;21.30;;;13.82;;
65665;SDS011;52365;47.464;18.976;2023-01-09T00:39:25;19.80;;;14.07;;
65665;SDS011;52365;47.464;18.976;2023-01-09T00:40:01;20.08;;;14.13;;
65665;SDS011;52365;47.464;18.976;2023-01-09T00:40:37;19.20;;;13.65;;
65665;SDS011;52365;47.464;18.976;2023-01-09T00:41:14;21.55;;;14.20;;
65665;SDS011;52365;47.464;18.976;2023-01-09T00:41:54;20.42;;;14.15;;
65665;SDS011;52365;47.464;18.976;2023-01-09T00:42:33;20.40;;;14.57;;
65665;SDS011;52365;47.464;18.976;2023-01-09T00:43:11;20.05;;;14.15;;
65665;SDS011;52365;47.464;18.976;2023-01-09T00:43:48;21.12;;;14.15;;
65665;SDS011;52365;47.464;18.976;2023-01-09T00:44:28;20.52;;;14.38;;
65665;SDS011;52365;47.464;18.976;2023-01-09T00:45:10;20.62;;;14.07;;
65665;SDS011;52365;47.464;18.976;2023-01-09T00:45:51;19.80;;;13.70;;
65665;SDS011;52365;47.464;18.976;2023-01-09T00:46:28;21.65;;;14.32;;
65665;SDS011;52365;47.464;18.976;2023-01-09T00:47:09;19.30;;;13.57;;
65665;SDS011;52365;47.464;18.976;2023-01-09T00:47:50;20.05;;;13.75;;
65665;SDS011;52365;47.464;18.976;2023-01-09T00:48:27;21.75;;;14.50;;
65665;SDS011;52365;47.464;18.976;2023-01-09T00:49:04;21.90;;;13.95;;
65665;SDS011;52365;47.464;18.976;2023-01-09T00:49:42;20.48;;;14.25;;
65665;SDS011;52365;47.464;18.976;2023-01-09T00:50:21;21.33;;;14.27;;
65665;SDS011;52365;47.464;18.976;2023-01-09T00:50:59;19.80;;;14.25;;
65665;SDS011;52365;47.464;18.976;2023-01-09T00:51:35;21.25;;;14.15;;
65665;SDS011;52365;47.464;18.976;2023-01-09T00:52:12;21.00;;;14.60;;
65665;SDS011;52365;47.464;18.976;2023-01-09T00:52:50;21.67;;;14.25;;
65665;SDS011;52365;47.464;18.976;2023-01-09T00:53:30;19.48;;;13.50;;
65665;SDS011;52365;47.464;18.976;2023-01-09T00:54:08;19.70;;;14.02;;
65665;SDS011;52365;47.464;18.976;2023-01-09T00:54:49;19.62;;;13.57;;
65665;SDS011;52365;47.464;18.976;2023-01-09T00:55:25;19.60;;;13.85;;
65665;SDS011;52365;47.464;18.976;2023-01-09T00:56:03;20.05;;;13.88;;
65665;SDS011;52365;47.464;18.976;2023-01-09T00:56:41;19.70;;;13.85;;
65665;SDS011;52365;47.464;18.976;2023-01-09T00:57:18;21.33;;;14.02;;
65665;SDS011;52365;47.464;18.976;2023-01-09T00:57:54;20.50;;;13.57;;
65665;SDS011;52365;47.464;18.976;2023-01-09T00:58:31;19.45;;;14.18;;
65665;SDS011;52365;47.464;18.976;2023-01-09T00:59:08;18.92;;;13.73;;
65665;SDS011;52365;47.464;18.976;2023-01-09T00:59:44;19.00;;;13.40;;
65665;SDS011;52365;47.464;18.976;2023-01-09T01:00:20;17.98;;;12.98;;
65665;SDS011;52365;47.464;18.976;2023-01-09T01:00:56;20.85;;;13.68;;
65665;SDS011;52365;47.464;18.976;2023-01-09T01:01:33;19.77;;;13.52;;
65665;SDS011;52365;47.464;18.976;2023-01-09T01:02:09;19.85;;;13.93;;
65665;SDS011;52365;47.464;18.976;2023-01-09T01:02:45;19.60;;;13.98;;
65665;SDS011;52365;47.464;18.976;2023-01-09T01:03:21;18.80;;;13.57;;
65665;SDS011;52365;47.464;18.976;2023-01-09T01:03:57;18.98;;;13.68;;
65665;SDS011;52365;47.464;18.976;2023-01-09T01:04:33;18.08;;;13.50;;
65665;SDS011;52365;47.464;18.976;2023-01-09T01:05:27;20.05;;;13.55;;
65665;SDS011;52365;47.464;18.976;2023-01-09T01:06:22;17.92;;;13.45;;
65665;SDS011;52365;47.464;18.976;2023-01-09T01:07:17;19.42;;;13.10;;
65665;SDS011;52365;47.464;18.976;2023-01-09T01:08:12;19.58;;;13.30;;
65665;SDS011;52365;47.464;18.976;2023-01-09T01:08:49;19.83;;;13.25;;
65665;SDS011;52365;47.464;18.976;2023-01-09T01:09:25;20.85;;;13.75;;
65665;SDS011;52365;47.464;18.976;2023-01-09T01:10:02;20.05;;;13.62;;
65665;SDS011;52365;47.464;18.976;2023-01-09T01:10:43;18.58;;;13.25;;
65665;SDS011;52365;47.464;18.976;2023-01-09T01:11:19;19.00;;;13.05;;
65665;SDS011;52365;47.464;18.976;2023-01-09T01:11:56;19.12;;;13.38;;
65665;SDS011;52365;47.464;18.976;2023-01-09T01:12:32;17.98;;;12.93;;
65665;SDS011;52365;47.464;18.976;2023-01-09T01:13:08;18.83;;;13.02;;
65665;SDS011;52365;47.464;18.976;2023-01-09T01:13:45;18.62;;;12.77;;
65665;SDS011;52365;47.464;18.976;2023-01-09T01:14:21;18.05;;;12.75;;
65665;SDS011;52365;47.464;18.976;2023-01-09T01:14:57;20.55;;;13.07;;
65665;SDS011;52365;47.464;18.976;2023-01-09T01:15:33;18.83;;;13.00;;
65665;SDS011;52365;47.464;18.976;2023-01-09T01:16:10;18.60;;;13.18;;
65665;SDS011;52365;47.464;18.976;2023-01-09T01:16:47;18.17;;;12.55;;
65665;SDS011;52365;47.464;18.976;2023-01-09T01:17:23;17.83;;;12.37;;
65665;SDS011;52365;47.464;18.976;2023-01-09T01:17:59;17.58;;;12.18;;
65665;SDS011;52365;47.464;18.976;2023-01-09T01:18:35;19.52;;;12.95;;
65665;SDS011;52365;47.464;18.976;2023-01-09T01:19:11;17.48;;;12.73;;
65665;SDS011;52365;47.464;18.976;2023-01-09T01:19:47;18.73;;;12.40;;
65665;SDS011;52365;47.464;18.976;2023-01-09T01:20:24;17.95;;;12.30;;
65665;SDS011;52365;47.464;18.976;2023-01-09T01:21:03;18.55;;;12.48;;
65665;SDS011;52365;47.464;18.976;2023-01-09T01:21:40;17.00;;;12.20;;
65665;SDS011;52365;47.464;18.976;2023-01-09T01:22:16;16.10;;;11.77;;
65665;SDS011;52365;47.464;18.976;2023-01-09T01:22:52;18.42;;;12.52;;
65665;SDS011;52365;47.464;18.976;2023-01-09T01:23:29;17.37;;;12.50;;
65665;SDS011;52365;47.464;18.976;2023-01-09T01:24:05;18.73;;;12.85;;
65665;SDS011;52365;47.464;18.976;2023-01-09T01:24:41;17.48;;;11.88;;
65665;SDS011;52365;47.464;18.976;2023-01-09T01:25:17;18.90;;;12.23;;
65665;SDS011;52365;47.464;18.976;2023-01-09T01:25:53;17.33;;;12.15;;
65665;SDS011;52365;47.464;18.976;2023-01-09T01:26:29;17.42;;;11.90;;
65665;SDS011;52365;47.464;18.976;2023-01-09T01:27:06;19.67;;;12.45;;
65665;SDS011;52365;47.464;18.976;2023-01-09T01:27:42;17.30;;;12.25;;
65665;SDS011;52365;47.464;18.976;2023-01-09T01:28:19;18.40;;;12.23;;
65665;SDS011;52365;47.464;18.976;2023-01-09T01:28:55;16.95;;;12.02;;
65665;SDS011;52365;47.464;18.976;2023-01-09T01:29:33;16.23;;;11.70;;
65665;SDS011;52365;47.464;18.976;2023-01-09T01:30:10;18.73;;;12.70;;
65665;SDS011;52365;47.464;18.976;2023-01-09T01:30:48;19.08;;;12.82;;
65665;SDS011;52365;47.464;18.976;2023-01-09T01:31:24;18.70;;;12.85;;
65665;SDS011;52365;47.464;18.976;2023-01-09T01:32:00;17.95;;;11.95;;
65665;SDS011;52365;47.464;18.976;2023-01-09T01:32:36;16.37;;;11.35;;
65665;SDS011;52365;47.464;18.976;2023-01-09T01:33:12;17.60;;;11.98;;
65665;SDS011;52365;47.464;18.976;2023-01-09T01:33:48;18.55;;;11.90;;
65665;SDS011;52365;47.464;18.976;2023-01-09T01:34:24;15.90;;;11.10;;
65665;SDS011;52365;47.464;18.976;2023-01-09T01:35:00;17.85;;;11.95;;
65665;SDS011;52365;47.464;18.976;2023-01-09T01:35:36;18.30;;;12.65;;
65665;SDS011;52365;47.464;18.976;2023-01-09T01:36:13;17.75;;;11.63;;
65665;SDS011;52365;47.464;18.976;2023-01-09T01:36:51;16.60;;;12.27;;
65665;SDS011;52365;47.464;18.976;2023-01-09T01:37:29;18.02;;;12.13;;
65665;SDS011;52365;47.464;18.976;2023-01-09T01:38:05;16.40;;;11.85;;
65665;SDS011;52365;47.464;18.976;2023-01-09T01:38:41;17.77;;;11.98;;
65665;SDS011;52365;47.464;18.976;2023-01-09T01:39:18;16.98;;;12.10;;
65665;SDS011;52365;47.464;18.976;2023-01-09T01:39:54;17.75;;;11.55;;
65665;SDS011;52365;47.464;18.976;2023-01-09T01:40:30;17.15;;;11.63;;
65665;SDS011;52365;47.464;18.976;2023-01-09T01:41:06;17.23;;;11.70;;
65665;SDS011;52365;47.464;18.976;2023-01-09T01:41:42;17.30;;;12.00;;
65665;SDS011;52365;47.464;18.976;2023-01-09T01:42:19;16.77;;;11.75;;
65665;SDS011;52365;47.464;18.976;2023-01-09T01:42:55;17.02;;;11.63;;
65665;SDS011;52365;47.464;18.976;2023-01-09T01:45:32;17.60;;;11.85;;
65665;SDS011;52365;47.464;18.976;2023-01-09T01:46:08;16.10;;;11.68;;
65665;SDS011;52365;47.464;18.976;2023-01-09T01:46:44;17.30;;;12.05;;
65665;SDS011;52365;47.464;18.976;2023-01-09T01:47:21;16.60;;;11.73;;
65665;SDS011;52365;47.464;18.976;2023-01-09T01:48:04;16.50;;;11.48;;
65665;SDS011;52365;47.464;18.976;2023-01-09T01:48:41;18.02;;;11.77;;
65665;SDS011;52365;47.464;18.976;2023-01-09T01:49:17;16.17;;;11.63;;
65665;SDS011;52365;47.464;18.976;2023-01-09T01:49:55;18.05;;;11.95;;
65665;SDS011;52365;47.464;18.976;2023-01-09T01:50:36;17.90;;;11.68;;
65665;SDS011;52365;47.464;18.976;2023-01-09T01:51:23;17.40;;;11.55;;
65665;SDS011;52365;47.464;18.976;2023-01-09T01:52:01;17.23;;;11.68;;
65665;SDS011;52365;47.464;18.976;2023-01-09T01:52:37;17.70;;;11.63;;
65665;SDS011;52365;47.464;18.976;2023-01-09T01:53:20;15.85;;;11.12;;
65665;SDS011;52365;47.464;18.976;2023-01-09T01:54:03;16.62;;;11.38;;
65665;SDS011;52365;47.464;18.976;2023-01-09T01:54:43;16.00;;;10.73;;
65665;SDS011;52365;47.464;18.976;2023-01-09T01:55:20;16.50;;;11.05;;
65665;SDS011;52365;47.464;18.976;2023-01-09T01:56:40;16.27;;;11.10;;
65665;SDS011;52365;47.464;18.976;2023-01-09T01:57:19;17.27;;;11.73;;
65665;SDS011;52365;47.464;18.976;2023-01-09T01:57:57;16.33;;;11.02;;
65665;SDS011;52365;47.464;18.976;2023-01-09T01:58:40;16.15;;;11.27;;
65665;SDS011;52365;47.464;18.976;2023-01-09T01:59:42;17.92;;;11.20;;
65665;SDS011;52365;47.464;18.976;2023-01-09T02:00:26;17.95;;;11.18;;
65665;SDS011;52365;47.464;18.976;2023-01-09T02:01:07;16.10;;;11.40;;
65665;SDS011;52365;47.464;18.976;2023-01-09T02:01:52;16.20;;;11.30;;
65665;SDS011;52365;47.464;18.976;2023-01-09T02:02:31;17.80;;;11.45;;
65665;SDS011;52365;47.464;18.976;2023-01-09T02:03:08;15.73;;;10.70;;
65665;SDS011;52365;47.464;18.976;2023-01-09T02:03:45;16.60;;;11.07;;
65665;SDS011;52365;47.464;18.976;2023-01-09T02:04:21;17.08;;;11.25;;
65665;SDS011;52365;47.464;18.976;2023-01-09T02:04:58;16.05;;;10.65;;
65665;SDS011;52365;47.464;18.976;2023-01-09T02:05:37;16.85;;;11.40;;
65665;SDS011;52365;47.464;18.976;2023-01-09T02:06:14;15.50;;;10.85;;
65665;SDS011;52365;47.464;18.976;2023-01-09T02:06:51;15.65;;;11.05;;
65665;SDS011;52365;47.464;18.976;2023-01-09T02:07:29;16.23;;;11.18;;
65665;SDS011;52365;47.464;18.976;2023-01-09T02:08:06;17.12;;;10.93;;
65665;SDS011;52365;47.464;18.976;2023-01-09T02:08:43;15.85;;;10.77;;
65665;SDS011;52365;47.464;18.976;2023-01-09T02:09:20;15.60;;;11.30;;
65665;SDS011;52365;47.464;18.976;2023-01-09T02:09:57;15.98;;;10.82;;
65665;SDS011;52365;47.464;18.976;2023-01-09T02:10:35;15.98;;;10.88;;
65665;SDS011;52365;47.464;18.976;2023-01-09T02:11:12;15.55;;;10.73;;
65665;SDS011;52365;47.464;18.976;2023-01-09T02:11:50;16.37;;;11.27;;
65665;SDS011;52365;47.464;18.976;2023-01-09T02:12:30;14.95;;;11.05;;
65665;SDS011;52365;47.464;18.976;2023-01-09T02:13:07;14.87;;;10.88;;
65665;SDS011;52365;47.464;18.976;2023-01-09T02:13:44;15.95;;;11.02;;
65665;SDS011;52365;47.464;18.976;2023-01-09T02:14:21;17.62;;;11.35;;
65665;SDS011;52365;47.464;18.976;2023-01-09T02:15:05;14.77;;;10.75;;
65665;SDS011;52365;47.464;18.976;2023-01-09T02:16:30;15.30;;;10.27;;
65665;SDS011;52365;47.464;18.976;2023-01-09T02:18:09;16.35;;;10.80;;
65665;SDS011;52365;47.464;18.976;2023-01-09T02:24:21;15.45;;;10.30;;
65665;SDS011;52365;47.464;18.976;2023-01-09T02:27:28;15.82;;;10.45;;
65665;SDS011;52365;47.464;18.976;2023-01-09T02:35:16;16.87;;;11.30;;
65665;SDS011;52365;47.464;18.976;2023-01-09T02:36:10;15.55;;;10.75;;
65665;SDS011;52365;47.464;18.976;2023-01-09T02:40:24;16.58;;;11.23;;
65665;SDS011;52365;47.464;18.976;2023-01-09T02:41:07;16.48;;;11.18;;
65665;SDS011;52365;47.464;18.976;2023-01-09T02:41:55;16.60;;;11.40;;
65665;SDS011;52365;47.464;18.976;2023-01-09T02:42:36;16.17;;;11.15;;
65665;SDS011;52365;47.464;18.976;2023-01-09T02:43:16;17.62;;;11.35;;
65665;SDS011;52365;47.464;18.976;2023-01-09T02:44:59;15.55;;;11.12;;
65665;SDS011;52365;47.464;18.976;2023-01-09T02:45:35;16.02;;;11.35;;
65665;SDS011;52365;47.464;18.976;2023-01-09T02:46:18;16.70;;;11.48;;
65665;SDS011;52365;47.464;18.976;2023-01-09T02:47:51;17.40;;;10.80;;
65665;SDS011;52365;47.464;18.976;2023-01-09T02:48:28;17.10;;;11.30;;
65665;SDS011;52365;47.464;18.976;2023-01-09T02:49:05;18.37;;;11.82;;
65665;SDS011;52365;47.464;18.976;2023-01-09T02:49:46;17.77;;;11.60;;
65665;SDS011;52365;47.464;18.976;2023-01-09T02:51:28;17.48;;;11.52;;
65665;SDS011;52365;47.464;18.976;2023-01-09T02:52:37;16.73;;;11.30;;
65665;SDS011;52365;47.464;18.976;2023-01-09T02:57:03;16.40;;;11.27;;
65665;SDS011;52365;47.464;18.976;2023-01-09T03:02:26;16.70;;;11.45;;
65665;SDS011;52365;47.464;18.976;2023-01-09T03:02:48;17.37;;;11.65;;
65665;SDS011;52365;47.464;18.976;2023-01-09T03:04:45;16.85;;;11.32;;
65665;SDS011;52365;47.464;18.976;2023-01-09T03:05:38;17.83;;;11.57;;
65665;SDS011;52365;47.464;18.976;2023-01-09T03:06:39;17.48;;;11.55;;
65665;SDS011;52365;47.464;18.976;2023-01-09T03:07:31;17.48;;;11.48;;
65665;SDS011;52365;47.464;18.976;2023-01-09T03:08:18;18.08;;;11.85;;
65665;SDS011;52365;47.464;18.976;2023-01-09T03:09:00;17.55;;;11.50;;
65665;SDS011;52365;47.464;18.976;2023-01-09T03:09:43;18.17;;;11.75;;
65665;SDS011;52365;47.464;18.976;2023-01-09T03:11:17;18.12;;;11.80;;
65665;SDS011;52365;47.464;18.976;2023-01-09T03:12:02;17.60;;;12.02;;
65665;SDS011;52365;47.464;18.976;2023-01-09T03:12:43;16.37;;;11.43;;
65665;SDS011;52365;47.464;18.976;2023-01-09T03:13:22;17.90;;;11.73;;
65665;SDS011;52365;47.464;18.976;2023-01-09T03:14:03;16.00;;;11.50;;
65665;SDS011;52365;47.464;18.976;2023-01-09T03:14:49;17.40;;;11.98;;
65665;SDS011;52365;47.464;18.976;2023-01-09T03:15:29;18.67;;;12.07;;
65665;SDS011;52365;47.464;18.976;2023-01-09T03:16:10;19.17;;;11.77;;
65665;SDS011;52365;47.464;18.976;2023-01-09T03:16:51;15.98;;;11.43;;
65665;SDS011;52365;47.464;18.976;2023-01-09T03:17:33;17.65;;;11.48;;
65665;SDS011;52365;47.464;18.976;2023-01-09T03:18:13;18.20;;;12.23;;
65665;SDS011;52365;47.464;18.976;2023-01-09T03:18:52;19.25;;;11.93;;
65665;SDS011;52365;47.464;18.976;2023-01-09T03:19:30;18.83;;;12.13;;
65665;SDS011;52365;47.464;18.976;2023-01-09T03:20:09;16.85;;;11.73;;
65665;SDS011;52365;47.464;18.976;2023-01-09T03:20:48;18.23;;;11.88;;
65665;SDS011;52365;47.464;18.976;2023-01-09T03:21:25;17.98;;;12.10;;
65665;SDS011;52365;47.464;18.976;2023-01-09T03:22:03;17.90;;;11.75;;
65665;SDS011;52365;47.464;18.976;2023-01-09T03:22:39;16.80;;;11.55;;
65665;SDS011;52365;47.464;18.976;2023-01-09T03:23:27;18.12;;;11.52;;
65665;SDS011;52365;47.464;18.976;2023-01-09T03:24:20;17.35;;;12.07;;
65665;SDS011;52365;47.464;18.976;2023-01-09T03:24:56;17.58;;;12.05;;
65665;SDS011;52365;47.464;18.976;2023-01-09T03:25:32;18.98;;;11.75;;
65665;SDS011;52365;47.464;18.976;2023-01-09T03:26:09;17.67;;;12.30;;
65665;SDS011;52365;47.464;18.976;2023-01-09T03:26:46;18.10;;;12.10;;
65665;SDS011;52365;47.464;18.976;2023-01-09T03:27:22;17.73;;;11.95;;
65665;SDS011;52365;47.464;18.976;2023-01-09T03:28:05;17.58;;;11.95;;
65665;SDS011;52365;47.464;18.976;2023-01-09T03:28:42;18.10;;;11.95;;
65665;SDS011;52365;47.464;18.976;2023-01-09T03:29:19;20.52;;;12.20;;
65665;SDS011;52365;47.464;18.976;2023-01-09T03:29:55;18.10;;;11.57;;
65665;SDS011;52365;47.464;18.976;2023-01-09T03:30:31;18.08;;;12.30;;
65665;SDS011;52365;47.464;18.976;2023-01-09T03:31:09;17.92;;;11.95;;
65665;SDS011;52365;47.464;18.976;2023-01-09T03:31:45;17.08;;;11.60;;
65665;SDS011;52365;47.464;18.976;2023-01-09T03:32:21;18.17;;;12.32;;
65665;SDS011;52365;47.464;18.976;2023-01-09T03:32:57;17.67;;;11.75;;
65665;SDS011;52365;47.464;18.976;2023-01-09T03:33:34;16.87;;;11.45;;
65665;SDS011;52365;47.464;18.976;2023-01-09T03:34:10;17.92;;;11.85;;
65665;SDS011;52365;47.464;18.976;2023-01-09T03:34:46;19.83;;;12.20;;
65665;SDS011;52365;47.464;18.976;2023-01-09T03:35:22;18.37;;;12.27;;
65665;SDS011;52365;47.464;18.976;2023-01-09T03:35:59;17.00;;;11.50;;
65665;SDS011;52365;47.464;18.976;2023-01-09T03:36:35;16.92;;;11.00;;
65665;SDS011;52365;47.464;18.976;2023-01-09T03:37:11;17.40;;;11.38;;
65665;SDS011;52365;47.464;18.976;2023-01-09T03:37:47;17.77;;;12.00;;
65665;SDS011;52365;47.464;18.976;2023-01-09T03:38:23;18.33;;;11.60;;
65665;SDS011;52365;47.464;18.976;2023-01-09T03:38:59;18.37;;;12.23;;
65665;SDS011;52365;47.464;18.976;2023-01-09T03:39:35;16.25;;;11.65;;
65665;SDS011;52365;47.464;18.976;2023-01-09T03:40:11;17.70;;;11.80;;
65665;SDS011;52365;47.464;18.976;2023-01-09T03:40:47;17.83;;;11.90;;
65665;SDS011;52365;47.464;18.976;2023-01-09T03:41:23;18.17;;;12.30;;
65665;SDS011;52365;47.464;18.976;2023-01-09T03:41:59;18.17;;;12.10;;
65665;SDS011;52365;47.464;18.976;2023-01-09T03:42:35;18.40;;;12.50;;
65665;SDS011;52365;47.464;18.976;2023-01-09T03:43:11;18.98;;;12.18;;
65665;SDS011;52365;47.464;18.976;2023-01-09T03:43:47;17.05;;;11.98;;
65665;SDS011;52365;47.464;18.976;2023-01-09T03:44:23;18.12;;;12.27;;
65665;SDS011;52365;47.464;18.976;2023-01-09T03:45:00;17.60;;;11.75;;
65665;SDS011;52365;47.464;18.976;2023-01-09T03:45:36;17.08;;;12.27;;
65665;SDS011;52365;47.464;18.976;2023-01-09T03:46:12;17.37;;;11.63;;
65665;SDS011;52365;47.464;18.976;2023-01-09T03:46:48;16.67;;;11.38;;
65665;SDS011;52365;47.464;18.976;2023-01-09T03:47:24;17.55;;;11.82;;
65665;SDS011;52365;47.464;18.976;2023-01-09T03:48:01;18.27;;;11.90;;
65665;SDS011;52365;47.464;18.976;2023-01-09T03:48:37;18.70;;;11.70;;
65665;SDS011;52365;47.464;18.976;2023-01-09T03:49:13;19.98;;;12.25;;
65665;SDS011;52365;47.464;18.976;2023-01-09T03:49:49;19.77;;;12.35;;
65665;SDS011;52365;47.464;18.976;2023-01-09T03:50:25;18.35;;;12.57;;
65665;SDS011;52365;47.464;18.976;2023-01-09T03:51:01;19.20;;;12.30;;
65665;SDS011;52365;47.464;18.976;2023-01-09T03:51:37;16.80;;;11.75;;
65665;SDS011;52365;47.464;18.976;2023-01-09T03:52:13;17.90;;;11.75;;
65665;SDS011;52365;47.464;18.976;2023-01-09T03:52:49;19.37;;;12.05;;
65665;SDS011;52365;47.464;18.976;2023-01-09T03:53:25;18.40;;;11.95;;
65665;SDS011;52365;47.464;18.976;2023-01-09T03:54:02;17.65;;;12.43;;
65665;SDS011;52365;47.464;18.976;2023-01-09T03:54:39;17.75;;;12.10;;
65665;SDS011;52365;47.464;18.976;2023-01-09T03:55:15;18.55;;;12.27;;
65665;SDS011;52365;47.464;18.976;2023-01-09T03:55:52;19.45;;;12.07;;
65665;SDS011;52365;47.464;18.976;2023-01-09T03:56:29;17.23;;;11.38;;
65665;SDS011;52365;47.464;18.976;2023-01-09T03:57:05;16.60;;;11.38;;
65665;SDS011;52365;47.464;18.976;2023-01-09T03:57:41;18.62;;;11.73;;
65665;SDS011;52365;47.464;18.976;2023-01-09T03:58:17;16.17;;;11.23;;
65665;SDS011;52365;47.464;18.976;2023-01-09T03:58:54;19.10;;;12.25;;
65665;SDS011;52365;47.464;18.976;2023-01-09T03:59:30;18.58;;;12.10;;
65665;SDS011;52365;47.464;18.976;2023-01-09T04:00:06;19.08;;;12.27;;
65665;SDS011;52365;47.464;18.976;2023-01-09T04:00:44;19.27;;;12.70;;
65665;SDS011;52365;47.464;18.976;2023-01-09T04:01:20;20.20;;;12.55;;
65665;SDS011;52365;47.464;18.976;2023-01-09T04:01:57;19.02;;;12.02;;
65665;SDS011;52365;47.464;18.976;2023-01-09T04:02:33;18.37;;;11.85;;
65665;SDS011;52365;47.464;18.976;2023-01-09T04:03:09;16.60;;;11.90;;
65665;SDS011;52365;47.464;18.976;2023-01-09T04:03:45;17.52;;;11.20;;
65665;SDS011;52365;47.464;18.976;2023-01-09T04:04:21;16.60;;;11.90;;
65665;SDS011;52365;47.464;18.976;2023-01-09T04:04:57;16.12;;;11.68;;
65665;SDS011;52365;47.464;18.976;2023-01-09T04:05:33;17.02;;;11.73;;
65665;SDS011;52365;47.464;18.976;2023-01-09T04:06:10;18.73;;;11.82;;
65665;SDS011;52365;47.464;18.976;2023-01-09T04:06:46;18.12;;;12.43;;
65665;SDS011;52365;47.464;18.976;2023-01-09T04:07:22;17.60;;;11.30;;
65665;SDS011;52365;47.464;18.976;2023-01-09T04:07:58;18.80;;;12.32;;
65665;SDS011;52365;47.464;18.976;2023-01-09T04:08:34;16.55;;;11.80;;
65665;SDS011;52365;47.464;18.976;2023-01-09T04:09:10;18.33;;;12.37;;
65665;SDS011;52365;47.464;18.976;2023-01-09T04:09:46;19.52;;;12.45;;
65665;SDS011;52365;47.464;18.976;2023-01-09T04:10:22;18.37;;;12.63;;
65665;SDS011;52365;47.464;18.976;2023-01-09T04:10:59;17.42;;;11.65;;
65665;SDS011;52365;47.464;18.976;2023-01-09T04:11:35;17.17;;;11.95;;
65665;SDS011;52365;47.464;18.976;2023-01-09T04:12:11;18.23;;;11.82;;
65665;SDS011;52365;47.464;18.976;2023-01-09T04:12:48;18.77;;;12.32;;
65665;SDS011;52365;47.464;18.976;2023-01-09T04:13:24;16.92;;;11.85;;
65665;SDS011;52365;47.464;18.976;2023-01-09T04:14:00;17.77;;;12.15;;
65665;SDS011;52365;47.464;18.976;2023-01-09T04:14:36;18.90;;;11.98;;
65665;SDS011;52365;47.464;18.976;2023-01-09T04:15:12;17.35;;;11.82;;
65665;SDS011;52365;47.464;18.976;2023-01-09T04:15:49;17.95;;;12.00;;